sensor_id;sensor_type;location;lat;lon;timestamp;pressure;altitude;pressure_sealevel;temperature;humidity
40948;BME280;49382;-25.924;28.194;2023-05-08T00:01:30;85576.82;;;19.28;37.29
40948;BME280;49382;-25.924;28.194;2023-05-08T00:03:55;85574.78;;;17.74;39.21
40948;BME280;49382;-25.924;28.194;2023-05-08T00:06:21;85583.07;;;18.67;38.19
40948;BME280;49382;-25.924;28.194;2023-05-08T00:08:45;85575.49;;;19.38;37.15
40948;BME280;49382;-25.924;28.194;2023-05-08T00:11:10;85571.27;;;19.07;37.45
40948;BME280;49382;-25.924;28.194;2023-05-08T00:13:35;85570.31;;;19.20;37.05
40948;BME280;49382;-25.924;28.194;2023-05-08T00:16:00;85571.99;;;19.59;36.92
40948;BME280;49382;-25.924;28.194;2023-05-08T00:18:25;85578.39;;;19.50;36.88
40948;BME280;49382;-25.924;28.194;2023-05-08T00:20:51;85578.75;;;19.23;37.22
40948;BME280;49382;-25.924;28.194;2023-05-08T00:23:16;85580.44;;;19.34;37.33
40948;BME280;49382;-25.924;28.194;2023-05-08T00:25:41;85586.96;;;19.27;37.28
40948;BME280;49382;-25.924;28.194;2023-05-08T00:28:06;85595.90;;;19.57;36.97
40948;BME280;49382;-25.924;28.194;2023-05-08T00:30:32;85607.03;;;19.11;37.47
40948;BME280;49382;-25.924;28.194;2023-05-08T00:32:57;85609.34;;;18.82;38.07
40948;BME280;49382;-25.924;28.194;2023-05-08T00:35:22;85609.07;;;18.38;38.39
40948;BME280;49382;-25.924;28.194;2023-05-08T00:37:48;85609.54;;;18.46;38.49
40948;BME280;49382;-25.924;28.194;2023-05-08T00:40:14;85607.97;;;18.86;38.23
40948;BME280;49382;-25.924;28.194;2023-05-08T00:42:39;85600.29;;;19.00;38.06
40948;BME280;49382;-25.924;28.194;2023-05-08T00:45:05;85592.51;;;18.79;38.35
40948;BME280;49382;-25.924;28.194;2023-05-08T00:47:29;85597.42;;;18.84;38.22
40948;BME280;49382;-25.924;28.194;2023-05-08T00:49:54;85598.75;;;19.19;37.79
40948;BME280;49382;-25.924;28.194;2023-05-08T00:52:19;85602.85;;;19.49;37.69
40948;BME280;49382;-25.924;28.194;2023-05-08T00:54:44;85604.03;;;19.18;37.74
40948;BME280;49382;-25.924;28.194;2023-05-08T00:57:09;85601.13;;;18.78;38.30
40948;BME280;49382;-25.924;28.194;2023-05-08T00:59:35;85595.64;;;19.11;37.94
40948;BME280;49382;-25.924;28.194;2023-05-08T01:02:00;85595.02;;;18.56;38.70
40948;BME280;49382;-25.924;28.194;2023-05-08T01:04:25;85599.21;;;19.08;38.69
40948;BME280;49382;-25.924;28.194;2023-05-08T01:06:49;85601.55;;;18.92;38.40
40948;BME280;49382;-25.924;28.194;2023-05-08T01:09:14;85606.62;;;19.15;38.28
40948;BME280;49382;-25.924;28.194;2023-05-08T01:11:46;85619.32;;;19.06;37.73
40948;BME280;49382;-25.924;28.194;2023-05-08T01:14:14;85618.81;;;19.44;37.29
40948;BME280;49382;-25.924;28.194;2023-05-08T01:16:37;85609.35;;;19.38;37.52
40948;BME280;49382;-25.924;28.194;2023-05-08T01:19:00;85603.51;;;19.87;36.82
40948;BME280;49382;-25.924;28.194;2023-05-08T01:21:26;85597.45;;;19.46;37.34
40948;BME280;49382;-25.924;28.194;2023-05-08T01:23:55;85577.19;;;19.51;37.00
40948;BME280;49382;-25.924;28.194;2023-05-08T01:31:09;85573.43;;;19.39;37.38
40948;BME280;49382;-25.924;28.194;2023-05-08T01:33:32;85576.04;;;19.40;37.54
40948;BME280;49382;-25.924;28.194;2023-05-08T01:35:55;85572.95;;;19.23;38.05
40948;BME280;49382;-25.924;28.194;2023-05-08T01:38:21;85571.09;;;18.96;38.50
40948;BME280;49382;-25.924;28.194;2023-05-08T01:40:47;85575.08;;;19.59;37.60
40948;BME280;49382;-25.924;28.194;2023-05-08T01:43:16;85580.10;;;19.56;37.59
40948;BME280;49382;-25.924;28.194;2023-05-08T01:45:33;85575.71;;;19.16;37.64
40948;BME280;49382;-25.924;28.194;2023-05-08T01:48:02;85578.88;;;19.55;37.49
40948;BME280;49382;-25.924;28.194;2023-05-08T01:50:28;85583.49;;;19.47;37.69
40948;BME280;49382;-25.924;28.194;2023-05-08T01:52:48;85588.48;;;18.70;38.59
40948;BME280;49382;-25.924;28.194;2023-05-08T01:55:13;85601.56;;;19.32;38.08
40948;BME280;49382;-25.924;28.194;2023-05-08T01:57:39;85610.25;;;18.92;38.54
40948;BME280;49382;-25.924;28.194;2023-05-08T02:00:03;85607.32;;;18.96;38.60
40948;BME280;49382;-25.924;28.194;2023-05-08T02:02:28;85596.35;;;18.89;38.52
40948;BME280;49382;-25.924;28.194;2023-05-08T02:04:52;85599.26;;;19.25;38.06
40948;BME280;49382;-25.924;28.194;2023-05-08T02:07:16;85600.00;;;18.73;38.89
40948;BME280;49382;-25.924;28.194;2023-05-08T02:09:43;85599.14;;;19.34;38.50
40948;BME280;49382;-25.924;28.194;2023-05-08T02:12:07;85595.75;;;18.87;38.91
40948;BME280;49382;-25.924;28.194;2023-05-08T02:14:31;85594.70;;;18.71;39.09
40948;BME280;49382;-25.924;28.194;2023-05-08T02:16:57;85601.30;;;18.85;39.06
40948;BME280;49382;-25.924;28.194;2023-05-08T02:19:23;85613.21;;;19.85;38.48
40948;BME280;49382;-25.924;28.194;2023-05-08T02:21:47;85623.72;;;19.28;38.58
40948;BME280;49382;-25.924;28.194;2023-05-08T02:24:13;85633.05;;;19.36;38.40
40948;BME280;49382;-25.924;28.194;2023-05-08T02:26:37;85635.77;;;19.13;38.74
40948;BME280;49382;-25.924;28.194;2023-05-08T02:29:02;85638.41;;;19.25;38.57
40948;BME280;49382;-25.924;28.194;2023-05-08T02:31:27;85640.20;;;19.50;37.99
40948;BME280;49382;-25.924;28.194;2023-05-08T02:33:52;85646.77;;;19.65;38.34
40948;BME280;49382;-25.924;28.194;2023-05-08T02:36:18;85652.49;;;19.46;38.37
40948;BME280;49382;-25.924;28.194;2023-05-08T02:38:44;85644.55;;;19.38;38.32
40948;BME280;49382;-25.924;28.194;2023-05-08T02:41:07;85636.16;;;19.35;38.73
40948;BME280;49382;-25.924;28.194;2023-05-08T02:43:32;85632.32;;;19.37;38.93
40948;BME280;49382;-25.924;28.194;2023-05-08T02:46:06;85629.56;;;19.16;39.04
40948;BME280;49382;-25.924;28.194;2023-05-08T02:48:27;85617.90;;;19.49;38.76
40948;BME280;49382;-25.924;28.194;2023-05-08T02:50:54;85608.88;;;19.25;38.68
40948;BME280;49382;-25.924;28.194;2023-05-08T02:53:17;85605.34;;;19.02;39.08
40948;BME280;49382;-25.924;28.194;2023-05-08T02:55:41;85591.17;;;19.39;38.44
40948;BME280;49382;-25.924;28.194;2023-05-08T02:58:10;85585.86;;;19.57;37.99
40948;BME280;49382;-25.924;28.194;2023-05-08T03:00:31;85577.09;;;19.51;38.08
40948;BME280;49382;-25.924;28.194;2023-05-08T03:02:56;85578.99;;;19.56;37.91
40948;BME280;49382;-25.924;28.194;2023-05-08T03:05:21;85596.12;;;19.97;37.30
40948;BME280;49382;-25.924;28.194;2023-05-08T03:07:46;85591.51;;;19.28;37.70
40948;BME280;49382;-25.924;28.194;2023-05-08T03:10:11;85597.21;;;19.24;38.13
40948;BME280;49382;-25.924;28.194;2023-05-08T03:12:35;85593.72;;;18.84;38.86
40948;BME280;49382;-25.924;28.194;2023-05-08T03:15:05;85589.93;;;19.37;38.75
40948;BME280;49382;-25.924;28.194;2023-05-08T03:17:25;85597.34;;;19.51;38.47
40948;BME280;49382;-25.924;28.194;2023-05-08T03:19:53;85603.14;;;19.69;38.04
40948;BME280;49382;-25.924;28.194;2023-05-08T03:22:16;85605.12;;;19.45;38.32
40948;BME280;49382;-25.924;28.194;2023-05-08T03:24:42;85598.78;;;19.31;38.62
40948;BME280;49382;-25.924;28.194;2023-05-08T03:27:05;85595.91;;;19.44;38.24
40948;BME280;49382;-25.924;28.194;2023-05-08T03:29:32;85598.74;;;19.26;38.45
40948;BME280;49382;-25.924;28.194;2023-05-08T03:31:57;85599.14;;;19.73;38.18
40948;BME280;49382;-25.924;28.194;2023-05-08T03:34:23;85597.06;;;19.60;38.41
40948;BME280;49382;-25.924;28.194;2023-05-08T03:36:47;85594.01;;;19.32;38.41
40948;BME280;49382;-25.924;28.194;2023-05-08T03:39:12;85595.51;;;18.75;38.87
40948;BME280;49382;-25.924;28.194;2023-05-08T03:41:37;85606.55;;;19.38;38.19
40948;BME280;49382;-25.924;28.194;2023-05-08T03:44:03;85609.50;;;19.41;37.64
40948;BME280;49382;-25.924;28.194;2023-05-08T03:46:27;85611.25;;;19.07;38.44
40948;BME280;49382;-25.924;28.194;2023-05-08T03:48:53;85620.76;;;18.96;38.91
40948;BME280;49382;-25.924;28.194;2023-05-08T03:51:18;85625.53;;;19.26;38.74
40948;BME280;49382;-25.924;28.194;2023-05-08T03:53:44;85634.62;;;19.25;38.80
40948;BME280;49382;-25.924;28.194;2023-05-08T03:56:09;85634.38;;;19.17;39.14
40948;BME280;49382;-25.924;28.194;2023-05-08T03:58:40;85640.13;;;19.46;38.90
40948;BME280;49382;-25.924;28.194;2023-05-08T04:01:06;85644.81;;;19.25;38.89
40948;BME280;49382;-25.924;28.194;2023-05-08T04:03:35;85644.54;;;19.67;38.38
40948;BME280;49382;-25.924;28.194;2023-05-08T04:05:58;85639.47;;;19.18;38.55
40948;BME280;49382;-25.924;28.194;2023-05-08T04:08:20;85630.75;;;19.15;39.04
40948;BME280;49382;-25.924;28.194;2023-05-08T04:10:47;85623.43;;;18.82;39.48
40948;BME280;49382;-25.924;28.194;2023-05-08T04:13:11;85626.08;;;19.29;38.56
40948;BME280;49382;-25.924;28.194;2023-05-08T04:15:36;85626.44;;;19.64;38.19
40948;BME280;49382;-25.924;28.194;2023-05-08T04:18:01;85634.29;;;19.51;38.54
40948;BME280;49382;-25.924;28.194;2023-05-08T04:20:26;85652.78;;;18.87;39.34
40948;BME280;49382;-25.924;28.194;2023-05-08T04:22:49;85659.48;;;19.21;38.72
40948;BME280;49382;-25.924;28.194;2023-05-08T04:25:15;85661.84;;;19.31;38.94
40948;BME280;49382;-25.924;28.194;2023-05-08T04:27:39;85662.18;;;19.13;39.18
40948;BME280;49382;-25.924;28.194;2023-05-08T04:30:04;85629.91;;;19.14;39.28
40948;BME280;49382;-25.924;28.194;2023-05-08T04:32:29;85589.15;;;19.27;39.20
40948;BME280;49382;-25.924;28.194;2023-05-08T04:34:54;85592.55;;;19.42;38.81
40948;BME280;49382;-25.924;28.194;2023-05-08T04:37:24;85611.72;;;18.59;40.35
40948;BME280;49382;-25.924;28.194;2023-05-08T04:39:50;85640.82;;;18.73;40.58
40948;BME280;49382;-25.924;28.194;2023-05-08T04:42:11;85662.55;;;18.63;40.83
40948;BME280;49382;-25.924;28.194;2023-05-08T04:44:37;85668.40;;;19.26;40.17
40948;BME280;49382;-25.924;28.194;2023-05-08T04:47:02;85667.47;;;19.00;40.16
40948;BME280;49382;-25.924;28.194;2023-05-08T04:49:27;85666.77;;;18.40;40.59
40948;BME280;49382;-25.924;28.194;2023-05-08T04:51:52;85658.33;;;18.43;40.36
40948;BME280;49382;-25.924;28.194;2023-05-08T04:54:17;85666.28;;;18.33;41.32
40948;BME280;49382;-25.924;28.194;2023-05-08T04:56:42;85669.16;;;18.43;40.54
40948;BME280;49382;-25.924;28.194;2023-05-08T04:59:07;85686.57;;;18.51;40.63
40948;BME280;49382;-25.924;28.194;2023-05-08T05:01:33;85703.92;;;18.29;41.28
40948;BME280;49382;-25.924;28.194;2023-05-08T05:03:58;85709.57;;;19.09;40.05
40948;BME280;49382;-25.924;28.194;2023-05-08T05:06:24;85689.77;;;19.14;39.87
40948;BME280;49382;-25.924;28.194;2023-05-08T05:08:49;85663.76;;;19.23;39.70
40948;BME280;49382;-25.924;28.194;2023-05-08T05:11:14;85642.58;;;18.35;41.31
40948;BME280;49382;-25.924;28.194;2023-05-08T05:13:39;85661.06;;;18.24;41.84
40948;BME280;49382;-25.924;28.194;2023-05-08T05:16:04;85685.39;;;18.57;41.49
40948;BME280;49382;-25.924;28.194;2023-05-08T05:18:29;85696.56;;;17.61;43.14
40948;BME280;49382;-25.924;28.194;2023-05-08T05:20:57;85700.25;;;18.50;41.78
40948;BME280;49382;-25.924;28.194;2023-05-08T05:23:19;85690.31;;;18.63;40.86
40948;BME280;49382;-25.924;28.194;2023-05-08T05:25:44;85689.76;;;16.98;44.11
40948;BME280;49382;-25.924;28.194;2023-05-08T05:28:09;85696.57;;;17.29;43.88
40948;BME280;49382;-25.924;28.194;2023-05-08T05:30:34;85701.08;;;18.54;41.98
40948;BME280;49382;-25.924;28.194;2023-05-08T05:32:59;85703.97;;;18.01;42.62
40948;BME280;49382;-25.924;28.194;2023-05-08T05:35:24;85709.45;;;18.38;41.93
40948;BME280;49382;-25.924;28.194;2023-05-08T05:37:49;85696.85;;;17.28;43.28
40948;BME280;49382;-25.924;28.194;2023-05-08T05:40:14;85649.36;;;16.45;44.82
40948;BME280;49382;-25.924;28.194;2023-05-08T05:42:39;85626.70;;;16.00;46.85
40948;BME280;49382;-25.924;28.194;2023-05-08T05:45:05;85645.60;;;16.05;45.99
40948;BME280;49382;-25.924;28.194;2023-05-08T05:47:29;85665.17;;;16.06;46.93
40948;BME280;49382;-25.924;28.194;2023-05-08T05:49:54;85653.79;;;18.19;42.76
40948;BME280;49382;-25.924;28.194;2023-05-08T05:52:20;85645.09;;;18.88;41.49
40948;BME280;49382;-25.924;28.194;2023-05-08T05:54:45;85645.23;;;18.31;41.37
40948;BME280;49382;-25.924;28.194;2023-05-08T05:57:09;85654.17;;;18.87;40.53
40948;BME280;49382;-25.924;28.194;2023-05-08T05:59:35;85654.24;;;17.84;42.60
40948;BME280;49382;-25.924;28.194;2023-05-08T06:01:59;85635.16;;;18.33;41.80
40948;BME280;49382;-25.924;28.194;2023-05-08T06:04:24;85622.89;;;16.81;44.28
40948;BME280;49382;-25.924;28.194;2023-05-08T06:06:50;85627.48;;;17.33;43.61
40948;BME280;49382;-25.924;28.194;2023-05-08T06:09:15;85634.49;;;18.35;42.12
40948;BME280;49382;-25.924;28.194;2023-05-08T06:11:40;85639.51;;;18.52;41.46
40948;BME280;49382;-25.924;28.194;2023-05-08T06:14:05;85642.59;;;18.61;40.84
40948;BME280;49382;-25.924;28.194;2023-05-08T06:16:30;85649.80;;;19.32;39.85
40948;BME280;49382;-25.924;28.194;2023-05-08T06:18:55;85652.59;;;18.25;41.30
40948;BME280;49382;-25.924;28.194;2023-05-08T06:21:20;85660.27;;;18.05;42.58
40948;BME280;49382;-25.924;28.194;2023-05-08T06:23:45;85670.58;;;18.46;41.73
40948;BME280;49382;-25.924;28.194;2023-05-08T06:26:10;85678.55;;;17.97;42.10
40948;BME280;49382;-25.924;28.194;2023-05-08T06:28:35;85688.35;;;19.56;40.44
40948;BME280;49382;-25.924;28.194;2023-05-08T06:31:00;85706.97;;;18.90;40.51
40948;BME280;49382;-25.924;28.194;2023-05-08T06:33:25;85720.14;;;17.88;42.53
40948;BME280;49382;-25.924;28.194;2023-05-08T06:35:50;85720.52;;;17.83;42.48
40948;BME280;49382;-25.924;28.194;2023-05-08T06:38:15;85715.99;;;18.11;42.52
40948;BME280;49382;-25.924;28.194;2023-05-08T06:40:42;85716.32;;;18.38;42.60
40948;BME280;49382;-25.924;28.194;2023-05-08T06:43:05;85722.96;;;18.57;42.44
40948;BME280;49382;-25.924;28.194;2023-05-08T06:45:31;85715.13;;;18.68;41.65
40948;BME280;49382;-25.924;28.194;2023-05-08T06:47:56;85704.66;;;19.38;40.60
40948;BME280;49382;-25.924;28.194;2023-05-08T06:50:21;85695.16;;;18.77;41.19
40948;BME280;49382;-25.924;28.194;2023-05-08T06:52:46;85693.95;;;18.87;41.02
40948;BME280;49382;-25.924;28.194;2023-05-08T06:55:11;85697.15;;;20.17;39.31
40948;BME280;49382;-25.924;28.194;2023-05-08T06:57:36;85693.74;;;18.87;41.08
40948;BME280;49382;-25.924;28.194;2023-05-08T07:00:01;85691.31;;;18.90;41.84
40948;BME280;49382;-25.924;28.194;2023-05-08T07:02:27;85690.50;;;19.41;39.84
40948;BME280;49382;-25.924;28.194;2023-05-08T07:04:53;85700.30;;;20.39;38.93
40948;BME280;49382;-25.924;28.194;2023-05-08T07:07:18;85705.99;;;19.45;39.77
40948;BME280;49382;-25.924;28.194;2023-05-08T07:09:44;85714.51;;;19.65;39.97
40948;BME280;49382;-25.924;28.194;2023-05-08T07:12:10;85719.33;;;19.44;40.46
40948;BME280;49382;-25.924;28.194;2023-05-08T07:14:36;85724.64;;;19.64;40.06
40948;BME280;49382;-25.924;28.194;2023-05-08T07:17:03;85726.80;;;20.11;39.99
40948;BME280;49382;-25.924;28.194;2023-05-08T07:19:27;85727.11;;;18.32;42.20
40948;BME280;49382;-25.924;28.194;2023-05-08T07:21:52;85725.76;;;18.95;41.52
40948;BME280;49382;-25.924;28.194;2023-05-08T07:24:17;85732.21;;;19.25;41.93
40948;BME280;49382;-25.924;28.194;2023-05-08T07:26:42;85732.41;;;19.34;41.25
40948;BME280;49382;-25.924;28.194;2023-05-08T07:29:07;85738.48;;;20.22;40.15
40948;BME280;49382;-25.924;28.194;2023-05-08T07:31:33;85723.59;;;19.17;41.50
40948;BME280;49382;-25.924;28.194;2023-05-08T07:33:58;85706.15;;;18.80;42.77
40948;BME280;49382;-25.924;28.194;2023-05-08T07:36:23;85668.62;;;17.78;43.73
40948;BME280;49382;-25.924;28.194;2023-05-08T07:38:48;85644.16;;;18.24;43.55
40948;BME280;49382;-25.924;28.194;2023-05-08T07:41:13;85634.03;;;19.44;41.45
40948;BME280;49382;-25.924;28.194;2023-05-08T07:43:39;85644.93;;;19.16;41.96
40948;BME280;49382;-25.924;28.194;2023-05-08T07:46:05;85648.19;;;19.94;41.05
40948;BME280;49382;-25.924;28.194;2023-05-08T07:48:29;85634.41;;;18.60;43.28
40948;BME280;49382;-25.924;28.194;2023-05-08T07:50:54;85622.15;;;19.23;41.33
40948;BME280;49382;-25.924;28.194;2023-05-08T07:53:20;85628.96;;;20.46;39.49
40948;BME280;49382;-25.924;28.194;2023-05-08T07:55:46;85639.57;;;19.87;39.54
40948;BME280;49382;-25.924;28.194;2023-05-08T07:58:12;85647.04;;;20.66;38.74
40948;BME280;49382;-25.924;28.194;2023-05-08T08:00:38;85653.31;;;20.06;40.75
40948;BME280;49382;-25.924;28.194;2023-05-08T08:03:03;85649.89;;;19.76;41.02
40948;BME280;49382;-25.924;28.194;2023-05-08T08:05:28;85644.68;;;20.19;39.35
40948;BME280;49382;-25.924;28.194;2023-05-08T08:07:54;85637.04;;;22.61;35.60
40948;BME280;49382;-25.924;28.194;2023-05-08T08:10:20;85639.83;;;26.15;29.75
40948;BME280;49382;-25.924;28.194;2023-05-08T08:12:47;85639.24;;;23.93;33.12
40948;BME280;49382;-25.924;28.194;2023-05-08T08:15:15;85636.27;;;24.82;31.54
40948;BME280;49382;-25.924;28.194;2023-05-08T08:17:38;85632.71;;;25.94;29.70
40948;BME280;49382;-25.924;28.194;2023-05-08T08:20:05;85636.88;;;32.07;23.87
40948;BME280;49382;-25.924;28.194;2023-05-08T08:22:29;85634.08;;;36.45;18.36
40948;BME280;49382;-25.924;28.194;2023-05-08T08:24:55;85626.86;;;35.70;18.03
40948;BME280;49382;-25.924;28.194;2023-05-08T08:27:20;85615.33;;;42.47;13.20
40948;BME280;49382;-25.924;28.194;2023-05-08T08:29:46;85610.24;;;42.77;12.02
40948;BME280;49382;-25.924;28.194;2023-05-08T08:32:11;85628.39;;;45.55;10.85
40948;BME280;49382;-25.924;28.194;2023-05-08T08:34:37;85631.89;;;41.78;12.93
40948;BME280;49382;-25.924;28.194;2023-05-08T08:37:04;85625.28;;;38.32;14.41
40948;BME280;49382;-25.924;28.194;2023-05-08T08:39:32;85639.57;;;42.60;12.26
40948;BME280;49382;-25.924;28.194;2023-05-08T08:41:54;85634.62;;;37.21;15.10
40948;BME280;49382;-25.924;28.194;2023-05-08T08:44:20;85634.10;;;33.22;17.95
40948;BME280;49382;-25.924;28.194;2023-05-08T08:46:50;85633.27;;;29.99;21.17
40948;BME280;49382;-25.924;28.194;2023-05-08T08:49:13;85620.46;;;28.81;23.03
40948;BME280;49382;-25.924;28.194;2023-05-08T08:51:42;85642.00;;;39.12;15.23
40948;BME280;49382;-25.924;28.194;2023-05-08T08:54:05;85635.84;;;38.46;14.31
40948;BME280;49382;-25.924;28.194;2023-05-08T08:56:28;85633.01;;;38.05;14.39
40948;BME280;49382;-25.924;28.194;2023-05-08T08:58:56;85621.62;;;31.17;18.97
40948;BME280;49382;-25.924;28.194;2023-05-08T09:01:19;85619.22;;;27.14;24.13
40948;BME280;49382;-25.924;28.194;2023-05-08T09:03:44;85622.05;;;26.96;24.32
40948;BME280;49382;-25.924;28.194;2023-05-08T09:06:10;85623.64;;;26.27;26.54
40948;BME280;49382;-25.924;28.194;2023-05-08T09:08:35;85621.25;;;26.05;26.71
40948;BME280;49382;-25.924;28.194;2023-05-08T09:11:01;85618.36;;;24.98;28.17
40948;BME280;49382;-25.924;28.194;2023-05-08T09:13:25;85612.35;;;25.55;27.85
40948;BME280;49382;-25.924;28.194;2023-05-08T09:15:51;85609.20;;;24.20;28.76
40948;BME280;49382;-25.924;28.194;2023-05-08T09:18:17;85608.48;;;25.13;27.69
40948;BME280;49382;-25.924;28.194;2023-05-08T09:20:43;85605.75;;;24.78;28.56
40948;BME280;49382;-25.924;28.194;2023-05-08T09:23:10;85610.99;;;25.28;28.18
40948;BME280;49382;-25.924;28.194;2023-05-08T09:25:41;85612.88;;;25.23;28.26
40948;BME280;49382;-25.924;28.194;2023-05-08T09:30:26;85618.95;;;25.31;29.03
40948;BME280;49382;-25.924;28.194;2023-05-08T09:33:00;85620.14;;;23.83;29.87
40948;BME280;49382;-25.924;28.194;2023-05-08T09:35:16;85619.53;;;23.04;30.88
40948;BME280;49382;-25.924;28.194;2023-05-08T09:37:42;85620.30;;;23.13;30.50
40948;BME280;49382;-25.924;28.194;2023-05-08T09:40:13;85613.23;;;24.08;30.32
40948;BME280;49382;-25.924;28.194;2023-05-08T09:42:40;85603.39;;;23.41;31.31
40948;BME280;49382;-25.924;28.194;2023-05-08T09:44:58;85602.54;;;23.73;31.31
40948;BME280;49382;-25.924;28.194;2023-05-08T09:47:24;85597.12;;;23.13;32.71
40948;BME280;49382;-25.924;28.194;2023-05-08T09:49:57;85608.76;;;22.95;32.68
40948;BME280;49382;-25.924;28.194;2023-05-08T09:52:16;85636.93;;;22.43;33.70
40948;BME280;49382;-25.924;28.194;2023-05-08T09:54:41;85684.53;;;22.72;32.93
40948;BME280;49382;-25.924;28.194;2023-05-08T09:57:11;85632.88;;;20.98;36.17
40948;BME280;49382;-25.924;28.194;2023-05-08T09:59:33;85646.65;;;20.17;34.68
40948;BME280;49382;-25.924;28.194;2023-05-08T10:01:59;85651.95;;;20.62;32.63
40948;BME280;49382;-25.924;28.194;2023-05-08T10:04:32;85636.63;;;20.55;35.28
40948;BME280;49382;-25.924;28.194;2023-05-08T10:06:56;85605.19;;;19.99;37.13
40948;BME280;49382;-25.924;28.194;2023-05-08T10:09:16;85586.90;;;20.05;35.85
40948;BME280;49382;-25.924;28.194;2023-05-08T10:11:48;85598.38;;;20.02;36.87
40948;BME280;49382;-25.924;28.194;2023-05-08T10:14:10;85598.76;;;19.62;37.97
40948;BME280;49382;-25.924;28.194;2023-05-08T10:16:40;85605.11;;;19.70;37.89
40948;BME280;49382;-25.924;28.194;2023-05-08T10:19:00;85605.46;;;19.73;37.62
40948;BME280;49382;-25.924;28.194;2023-05-08T10:21:28;85591.32;;;19.82;37.93
40948;BME280;49382;-25.924;28.194;2023-05-08T10:23:54;85583.13;;;19.44;38.35
40948;BME280;49382;-25.924;28.194;2023-05-08T10:26:24;85585.42;;;20.08;37.97
40948;BME280;49382;-25.924;28.194;2023-05-08T10:28:48;85594.12;;;19.55;39.27
40948;BME280;49382;-25.924;28.194;2023-05-08T10:31:12;85591.41;;;20.13;38.76
40948;BME280;49382;-25.924;28.194;2023-05-08T10:33:36;85590.47;;;19.21;40.37
40948;BME280;49382;-25.924;28.194;2023-05-08T10:36:00;85582.05;;;18.88;41.15
40948;BME280;49382;-25.924;28.194;2023-05-08T10:38:26;85574.83;;;19.24;40.17
40948;BME280;49382;-25.924;28.194;2023-05-08T10:40:51;85570.16;;;20.26;39.04
40948;BME280;49382;-25.924;28.194;2023-05-08T10:43:17;85561.89;;;20.09;38.51
40948;BME280;49382;-25.924;28.194;2023-05-08T10:45:42;85558.07;;;20.19;39.29
40948;BME280;49382;-25.924;28.194;2023-05-08T10:48:18;85551.04;;;21.14;38.23
40948;BME280;49382;-25.924;28.194;2023-05-08T10:50:41;85566.99;;;21.14;38.63
40948;BME280;49382;-25.924;28.194;2023-05-08T10:53:04;85582.63;;;21.48;37.99
40948;BME280;49382;-25.924;28.194;2023-05-08T10:55:30;85580.25;;;21.54;39.04
40948;BME280;49382;-25.924;28.194;2023-05-08T11:00:18;85546.49;;;21.24;38.57
40948;BME280;49382;-25.924;28.194;2023-05-08T11:02:47;85552.47;;;20.27;39.68
40948;BME280;49382;-25.924;28.194;2023-05-08T11:05:13;85552.83;;;21.04;38.53
40948;BME280;49382;-25.924;28.194;2023-05-08T11:10:06;85555.54;;;20.99;38.54
40948;BME280;49382;-25.924;28.194;2023-05-08T11:12:27;85555.07;;;20.99;38.14
40948;BME280;49382;-25.924;28.194;2023-05-08T11:14:59;85552.62;;;20.47;38.95
40948;BME280;49382;-25.924;28.194;2023-05-08T11:17:22;85547.04;;;20.99;37.77
40948;BME280;49382;-25.924;28.194;2023-05-08T11:22:14;85544.51;;;20.49;37.95
40948;BME280;49382;-25.924;28.194;2023-05-08T11:24:36;85543.99;;;21.26;38.26
40948;BME280;49382;-25.924;28.194;2023-05-08T11:27:01;85545.76;;;20.53;38.12
40948;BME280;49382;-25.924;28.194;2023-05-08T11:29:27;85533.93;;;21.05;38.53
40948;BME280;49382;-25.924;28.194;2023-05-08T11:31:53;85523.45;;;21.51;37.25
40948;BME280;49382;-25.924;28.194;2023-05-08T11:39:11;85511.04;;;21.69;37.79
40948;BME280;49382;-25.924;28.194;2023-05-08T11:41:37;85512.13;;;21.57;37.37
40948;BME280;49382;-25.924;28.194;2023-05-08T11:44:17;85509.99;;;21.92;35.86
40948;BME280;49382;-25.924;28.194;2023-05-08T11:46:38;85503.55;;;22.62;35.64
40948;BME280;49382;-25.924;28.194;2023-05-08T11:48:58;85495.40;;;22.40;35.18
40948;BME280;49382;-25.924;28.194;2023-05-08T11:51:21;85495.36;;;22.49;35.49
40948;BME280;49382;-25.924;28.194;2023-05-08T11:53:45;85501.19;;;23.07;34.66
40948;BME280;49382;-25.924;28.194;2023-05-08T11:56:11;85499.04;;;21.75;36.45
40948;BME280;49382;-25.924;28.194;2023-05-08T11:58:37;85491.56;;;23.00;34.25
40948;BME280;49382;-25.924;28.194;2023-05-08T12:01:03;85483.26;;;22.77;34.12
40948;BME280;49382;-25.924;28.194;2023-05-08T12:03:28;85480.86;;;22.67;33.72
40948;BME280;49382;-25.924;28.194;2023-05-08T12:05:57;85479.89;;;21.77;35.67
40948;BME280;49382;-25.924;28.194;2023-05-08T12:08:20;85478.86;;;20.90;36.64
40948;BME280;49382;-25.924;28.194;2023-05-08T12:10:50;85488.56;;;21.27;36.52
40948;BME280;49382;-25.924;28.194;2023-05-08T12:13:16;85496.74;;;21.49;35.92
40948;BME280;49382;-25.924;28.194;2023-05-08T12:15:38;85505.14;;;21.84;35.75
40948;BME280;49382;-25.924;28.194;2023-05-08T12:18:03;85513.96;;;21.96;35.81
40948;BME280;49382;-25.924;28.194;2023-05-08T12:20:29;85508.91;;;21.99;36.21
40948;BME280;49382;-25.924;28.194;2023-05-08T12:22:55;85476.28;;;21.72;36.45
40948;BME280;49382;-25.924;28.194;2023-05-08T12:25:21;85458.34;;;20.68;38.23
40948;BME280;49382;-25.924;28.194;2023-05-08T12:27:47;85470.92;;;20.02;39.23
40948;BME280;49382;-25.924;28.194;2023-05-08T12:30:14;85475.24;;;19.80;40.30
40948;BME280;49382;-25.924;28.194;2023-05-08T12:32:40;85476.84;;;19.39;41.00
40948;BME280;49382;-25.924;28.194;2023-05-08T12:35:05;85476.35;;;18.25;42.85
40948;BME280;49382;-25.924;28.194;2023-05-08T12:37:30;85467.84;;;19.77;40.75
40948;BME280;49382;-25.924;28.194;2023-05-08T12:39:56;85467.62;;;19.98;40.52
40948;BME280;49382;-25.924;28.194;2023-05-08T12:42:23;85466.66;;;19.58;41.04
40948;BME280;49382;-25.924;28.194;2023-05-08T12:44:51;85461.45;;;17.50;43.90
40948;BME280;49382;-25.924;28.194;2023-05-08T12:47:13;85455.84;;;19.05;41.68
40948;BME280;49382;-25.924;28.194;2023-05-08T12:49:39;85455.94;;;19.25;40.79